Time;durP1;ratioP1;P1;durP2;ratioP2;P2;SDS_P1;SDS_P2;PMS_P1;PMS_P2;Temp;Humidity;BMP_temperature;BMP_pressure;BME280_temperature;BME280_humidity;BME280_pressure;Samples;Min_cycle;Max_cycle;Signal;HPM_P1;HPM_P2
2023/12/20 00:01:54;;;;;;;19.15;2.42;;;6.30;99.90;;;;;;6215685;23;20095;-75
2023/12/20 00:04:20;;;;;;;18.88;3.55;;;6.30;99.90;;;;;;6215741;23;20369;-75
2023/12/20 00:06:45;;;;;;;10.55;1.80;;;6.30;99.90;;;;;;6215731;23;20021;-75
2023/12/20 00:09:11;;;;;;;13.98;2.22;;;6.30;99.90;;;;;;6215747;23;20009;-75
2023/12/20 00:11:37;;;;;;;15.85;2.95;;;6.30;99.90;;;;;;6215644;23;20020;-75
2023/12/20 00:14:02;;;;;;;13.15;2.65;;;6.30;99.90;;;;;;6215684;23;20009;-75
2023/12/20 00:16:28;;;;;;;16.80;2.45;;;6.30;99.90;;;;;;6215450;23;20028;-75
2023/12/20 00:18:54;;;;;;;16.42;2.58;;;6.30;99.90;;;;;;6215643;23;20341;-75
2023/12/20 00:21:19;;;;;;;22.15;3.00;;;6.20;99.90;;;;;;6215525;23;20445;-75
2023/12/20 00:23:45;;;;;;;16.58;1.95;;;6.20;99.90;;;;;;6215281;23;20024;-75
2023/12/20 00:26:11;;;;;;;17.30;2.15;;;6.30;99.90;;;;;;6215541;23;20020;-75
2023/12/20 00:28:39;;;;;;;22.35;2.95;;;6.40;99.90;;;;;;6214848;23;20028;-75
2023/12/20 00:31:07;;;;;;;23.40;4.53;;;6.40;99.90;;;;;;6215337;23;20457;-75
2023/12/20 00:33:32;;;;;;;21.63;2.75;;;6.40;99.90;;;;;;6215487;23;20088;-75
2023/12/20 00:35:58;;;;;;;19.60;2.80;;;6.40;99.90;;;;;;6215333;23;20078;-75
2023/12/20 00:38:24;;;;;;;15.80;2.03;;;6.40;99.90;;;;;;6215429;23;20070;-75
2023/12/20 00:40:52;;;;;;;15.90;2.70;;;6.40;99.90;;;;;;6215302;23;20444;-75
2023/12/20 00:43:18;;;;;;;15.27;2.55;;;6.30;99.90;;;;;;6215099;23;20017;-75
2023/12/20 00:45:43;;;;;;;12.75;3.15;;;6.40;99.90;;;;;;6216685;23;20047;-75
2023/12/20 00:48:09;;;;;;;15.25;2.65;;;6.40;99.90;;;;;;6215615;23;20016;-75
2023/12/20 00:50:37;;;;;;;19.17;3.47;;;6.40;99.90;;;;;;6212582;23;20075;-75
2023/12/20 00:53:05;;;;;;;21.73;2.78;;;6.30;99.90;;;;;;6215289;23;20095;-75
2023/12/20 00:55:31;;;;;;;16.17;3.10;;;6.30;99.90;;;;;;6215162;23;20074;-75
2023/12/20 00:57:56;;;;;;;23.45;2.83;;;6.40;99.90;;;;;;6215218;23;20024;-75
2023/12/20 01:00:22;;;;;;;26.08;3.97;;;6.30;99.90;;;;;;6215087;23;20021;-76
2023/12/20 01:02:49;;;;;;;15.30;3.42;;;6.40;99.90;;;;;;6215134;23;20021;-75
2023/12/20 01:05:15;;;;;;;23.88;4.28;;;6.40;99.90;;;;;;6215201;23;20092;-75
2023/12/20 01:07:43;;;;;;;20.88;3.85;;;6.40;99.90;;;;;;6215182;23;20048;-75
2023/12/20 01:10:09;;;;;;;21.83;3.08;;;6.40;99.90;;;;;;6215135;23;20008;-75
2023/12/20 01:12:36;;;;;;;17.27;2.53;;;6.50;99.90;;;;;;6214920;23;20510;-75
2023/12/20 01:15:02;;;;;;;14.63;2.72;;;6.50;99.90;;;;;;6214904;23;20013;-75
2023/12/20 01:17:27;;;;;;;22.85;2.97;;;6.50;99.90;;;;;;6214942;23;20020;-75
2023/12/20 01:19:53;;;;;;;18.40;3.03;;;6.40;99.90;;;;;;6214901;23;20019;-75
2023/12/20 01:22:19;;;;;;;17.27;4.32;;;6.40;99.90;;;;;;6214956;23;20021;-75
2023/12/20 01:24:57;;;;;;;21.33;3.60;;;6.50;99.90;;;;;;6212470;23;20345;-75
2023/12/20 01:27:24;;;;;;;17.58;3.10;;;6.50;99.90;;;;;;6214836;23;20107;-75
2023/12/20 01:30:04;;;;;;;16.25;3.47;;;6.50;99.90;;;;;;6212483;23;20059;-75
2023/12/20 01:32:30;;;;;;;23.42;4.50;;;6.50;99.90;;;;;;6214869;23;20012;-75
2023/12/20 01:34:56;;;;;;;17.10;2.53;;;6.50;99.90;;;;;;6214340;23;20055;-75
2023/12/20 01:37:23;;;;;;;19.20;3.38;;;6.50;99.90;;;;;;6214875;23;20016;-75
2023/12/20 01:39:49;;;;;;;17.23;2.85;;;6.60;99.90;;;;;;6214676;23;20020;-75
2023/12/20 01:42:15;;;;;;;18.30;3.03;;;6.60;99.90;;;;;;6214778;23;20063;-75
2023/12/20 01:44:40;;;;;;;28.30;4.28;;;6.70;99.90;;;;;;6214811;23;20016;-75
2023/12/20 01:47:07;;;;;;;29.38;4.88;;;6.70;99.90;;;;;;6216348;23;20016;-75
2023/12/20 01:49:33;;;;;;;24.45;4.68;;;6.70;99.90;;;;;;6214721;23;20023;-75
2023/12/20 01:51:59;;;;;;;22.83;2.80;;;6.70;99.90;;;;;;6214772;23;20024;-75
2023/12/20 01:54:25;;;;;;;18.58;3.67;;;6.70;99.90;;;;;;6214668;23;20027;-75
2023/12/20 01:56:50;;;;;;;23.70;3.75;;;6.70;99.90;;;;;;6215653;23;20023;-75
2023/12/20 01:59:19;;;;;;;29.42;5.00;;;6.80;99.90;;;;;;6214664;23;20091;-75
2023/12/20 02:01:44;;;;;;;20.92;3.70;;;6.80;99.90;;;;;;6214536;23;20318;-75
2023/12/20 02:04:10;;;;;;;35.65;5.90;;;6.80;99.90;;;;;;6189372;23;20495;-75
2023/12/20 02:06:39;;;;;;;29.70;4.95;;;6.80;99.90;;;;;;6214674;23;20016;-75
2023/12/20 02:09:05;;;;;;;14.50;3.28;;;6.80;99.90;;;;;;6214631;23;20096;-75
2023/12/20 02:11:31;;;;;;;22.27;3.50;;;6.90;99.90;;;;;;6214637;23;20036;-75
2023/12/20 02:13:56;;;;;;;23.75;4.85;;;7.00;99.90;;;;;;6214598;23;20024;-75
2023/12/20 02:16:22;;;;;;;19.70;3.78;;;7.10;99.90;;;;;;6214603;23;20016;-75
2023/12/20 02:18:48;;;;;;;17.52;3.08;;;7.10;99.90;;;;;;6214461;23;20044;-75
2023/12/20 02:21:15;;;;;;;25.00;4.03;;;7.00;99.90;;;;;;6214459;23;20017;-75
2023/12/20 02:23:40;;;;;;;22.30;3.10;;;7.00;99.90;;;;;;6214488;23;20071;-75
2023/12/20 02:26:07;;;;;;;21.83;3.25;;;6.90;99.90;;;;;;6214560;23;20384;-75
2023/12/20 02:28:33;;;;;;;22.27;3.55;;;6.90;99.90;;;;;;6214351;23;20021;-75
2023/12/20 02:30:59;;;;;;;25.27;3.65;;;6.90;99.90;;;;;;6214480;23;20449;-75
2023/12/20 02:33:24;;;;;;;25.73;4.07;;;6.90;99.90;;;;;;6216404;23;20013;-75
2023/12/20 02:35:50;;;;;;;27.23;5.75;;;6.90;99.90;;;;;;6215966;23;20020;-75
2023/12/20 02:38:16;;;;;;;29.38;4.43;;;7.00;99.90;;;;;;6214469;23;20027;-76
2023/12/20 02:40:41;;;;;;;21.23;3.67;;;7.10;99.90;;;;;;6214379;23;20027;-75
2023/12/20 02:43:07;;;;;;;28.95;3.80;;;7.10;99.90;;;;;;6214652;23;20336;-75
2023/12/20 02:45:32;;;;;;;36.78;4.80;;;7.20;99.90;;;;;;6214347;23;20012;-75
2023/12/20 02:47:58;;;;;;;22.88;4.30;;;7.10;99.90;;;;;;6216317;23;20110;-75
2023/12/20 02:50:24;;;;;;;22.13;4.00;;;7.20;99.90;;;;;;6216406;23;20009;-75
2023/12/20 02:52:49;;;;;;;20.52;4.35;;;7.20;99.90;;;;;;6213761;23;20020;-75
2023/12/20 02:55:15;;;;;;;24.65;3.50;;;7.20;99.90;;;;;;6216974;23;20511;-75
2023/12/20 02:57:41;;;;;;;25.67;5.85;;;7.20;99.90;;;;;;6216247;23;20444;-75
2023/12/20 03:00:09;;;;;;;27.65;4.40;;;7.20;99.90;;;;;;6216294;23;20009;-75
2023/12/20 03:02:35;;;;;;;20.05;3.83;;;7.20;99.90;;;;;;6216314;23;20467;-75
2023/12/20 03:05:01;;;;;;;17.33;3.78;;;7.10;99.90;;;;;;6213650;23;20016;-76
2023/12/20 03:07:27;;;;;;;26.83;3.70;;;7.10;99.90;;;;;;6217774;23;20099;-75
2023/12/20 03:09:52;;;;;;;13.48;2.55;;;7.00;99.90;;;;;;6216155;23;20036;-75
2023/12/20 03:12:18;;;;;;;13.13;2.65;;;6.90;99.90;;;;;;6216157;23;20024;-75
2023/12/20 03:14:44;;;;;;;10.38;1.73;;;6.70;99.90;;;;;;6216157;23;20445;-75
2023/12/20 03:17:10;;;;;;;18.95;3.03;;;6.70;99.90;;;;;;6216123;23;20063;-75
2023/12/20 03:19:39;;;;;;;18.17;2.80;;;6.70;99.90;;;;;;6215998;23;20016;-75
2023/12/20 03:22:04;;;;;;;30.55;3.92;;;6.70;99.90;;;;;;6216141;23;20021;-75
2023/12/20 03:24:30;;;;;;;26.02;4.82;;;6.70;99.90;;;;;;6216134;23;20013;-75
2023/12/20 03:26:55;;;;;;;27.50;4.32;;;6.80;99.90;;;;;;6216076;23;20023;-75
2023/12/20 03:29:21;;;;;;;29.08;6.13;;;6.80;99.90;;;;;;6216147;23;20016;-75
2023/12/20 03:31:47;;;;;;;28.98;4.53;;;6.90;99.90;;;;;;6217863;23;20020;-75
2023/12/20 03:34:12;;;;;;;30.27;4.07;;;6.90;99.90;;;;;;6216032;23;20436;-75
2023/12/20 03:36:38;;;;;;;32.70;5.88;;;7.00;99.90;;;;;;6215987;23;20016;-75
2023/12/20 03:39:05;;;;;;;33.28;5.38;;;7.00;99.90;;;;;;6215831;23;20068;-75
2023/12/20 03:41:30;;;;;;;32.97;4.88;;;7.10;99.90;;;;;;6215877;23;20027;-75
2023/12/20 03:43:56;;;;;;;28.80;5.10;;;7.10;99.90;;;;;;6215833;23;20095;-75
2023/12/20 03:46:21;;;;;;;26.55;4.18;;;7.10;99.90;;;;;;6215739;23;20046;-75
2023/12/20 03:48:47;;;;;;;33.63;4.95;;;7.10;99.90;;;;;;6217412;23;20025;-75
2023/12/20 03:51:12;;;;;;;27.17;4.63;;;7.00;99.90;;;;;;6215738;23;20032;-75
2023/12/20 03:53:40;;;;;;;30.17;4.43;;;7.00;99.90;;;;;;6215951;23;20016;-75
2023/12/20 03:56:06;;;;;;;26.33;4.38;;;7.10;99.90;;;;;;6215749;23;20021;-75
2023/12/20 03:58:31;;;;;;;29.65;4.88;;;7.20;99.90;;;;;;6215297;23;20035;-75
2023/12/20 04:00:57;;;;;;;31.00;5.72;;;7.20;99.90;;;;;;6217507;23;20017;-75
2023/12/20 04:03:25;;;;;;;25.88;4.82;;;7.30;99.90;;;;;;6216141;23;20341;-75
2023/12/20 04:05:51;;;;;;;24.33;5.78;;;7.30;99.90;;;;;;6217078;23;20035;-76
2023/12/20 04:08:16;;;;;;;33.65;4.90;;;7.20;99.90;;;;;;6217595;23;20021;-75
2023/12/20 04:10:42;;;;;;;22.30;3.58;;;7.20;99.90;;;;;;6215647;23;20021;-75
2023/12/20 04:13:07;;;;;;;23.92;4.13;;;7.10;99.90;;;;;;6215678;23;20023;-75
2023/12/20 04:15:33;;;;;;;27.90;4.45;;;7.10;99.90;;;;;;6215629;23;20012;-75
2023/12/20 04:18:05;;;;;;;25.50;4.45;;;7.20;99.90;;;;;;6215459;23;20047;-75
2023/12/20 04:20:30;;;;;;;27.52;4.65;;;7.10;99.90;;;;;;6215566;23;20020;-75
2023/12/20 04:22:56;;;;;;;22.20;4.28;;;7.20;99.90;;;;;;6215470;23;20012;-75
2023/12/20 04:25:22;;;;;;;22.13;3.72;;;7.20;99.90;;;;;;6215377;23;20059;-75
2023/12/20 04:27:47;;;;;;;21.75;3.85;;;7.30;99.90;;;;;;6215558;23;20023;-75
2023/12/20 04:30:13;;;;;;;24.30;4.03;;;7.30;99.90;;;;;;6215458;23;20019;-75
2023/12/20 04:32:42;;;;;;;27.33;3.33;;;7.30;99.90;;;;;;6215457;23;20024;-75
2023/12/20 04:35:08;;;;;;;33.28;4.95;;;7.30;99.90;;;;;;6215380;23;20017;-75
2023/12/20 04:37:34;;;;;;;21.23;3.78;;;7.30;99.90;;;;;;6215373;23;20329;-75
2023/12/20 04:39:59;;;;;;;23.88;4.15;;;7.30;99.90;;;;;;6215326;23;20490;-75
2023/12/20 04:42:25;;;;;;;18.08;3.80;;;7.30;99.90;;;;;;6215318;23;20348;-75
2023/12/20 04:44:50;;;;;;;23.83;4.43;;;7.30;99.90;;;;;;6215442;23;20012;-75
2023/12/20 04:47:16;;;;;;;24.48;4.43;;;7.20;99.90;;;;;;6217261;23;20329;-75
2023/12/20 04:49:41;;;;;;;24.88;4.18;;;7.20;99.90;;;;;;6215302;23;20023;-75
2023/12/20 04:52:07;;;;;;;17.42;3.28;;;7.20;99.90;;;;;;6215316;23;20333;-75
2023/12/20 04:54:33;;;;;;;20.55;4.25;;;7.30;99.90;;;;;;6215282;23;20012;-76
2023/12/20 04:56:58;;;;;;;26.90;5.18;;;7.30;99.90;;;;;;6215235;23;20017;-75
2023/12/20 04:59:24;;;;;;;19.48;3.72;;;7.30;99.90;;;;;;6215240;23;20009;-75
2023/12/20 05:01:49;;;;;;;26.63;4.07;;;7.30;99.90;;;;;;6214909;23;20025;-75
2023/12/20 05:04:18;;;;;;;23.02;4.00;;;7.40;99.90;;;;;;6214855;23;20425;-76
2023/12/20 05:06:43;;;;;;;22.63;3.67;;;7.40;99.90;;;;;;6215164;23;20029;-75
2023/12/20 05:09:12;;;;;;;24.08;5.00;;;7.40;99.90;;;;;;6214806;23;20475;-75
2023/12/20 05:11:38;;;;;;;27.17;4.35;;;7.40;99.90;;;;;;6215325;23;20039;-76
2023/12/20 05:14:03;;;;;;;24.60;4.80;;;7.40;99.90;;;;;;6215084;23;20348;-75
2023/12/20 05:16:29;;;;;;;28.17;4.15;;;7.40;99.90;;;;;;6216753;23;20078;-75
2023/12/20 05:18:55;;;;;;;23.20;4.05;;;7.40;99.90;;;;;;6215263;23;20047;-75
2023/12/20 05:21:21;;;;;;;24.65;3.40;;;7.40;99.90;;;;;;6215021;23;20044;-75
2023/12/20 05:23:47;;;;;;;25.35;5.53;;;7.40;99.90;;;;;;6214887;23;20440;-75
2023/12/20 05:26:12;;;;;;;22.27;3.60;;;7.40;99.90;;;;;;6214991;23;20016;-76
2023/12/20 05:28:38;;;;;;;25.30;4.38;;;7.50;99.90;;;;;;6214989;23;20024;-75
2023/12/20 05:31:03;;;;;;;19.10;3.85;;;7.40;99.90;;;;;;6214930;23;20024;-75
2023/12/20 05:33:29;;;;;;;27.38;4.05;;;7.40;99.90;;;;;;6214881;23;20384;-75
2023/12/20 05:35:55;;;;;;;38.08;4.57;;;7.40;99.90;;;;;;6216424;23;20012;-75
2023/12/20 05:38:20;;;;;;;25.25;4.50;;;7.40;99.90;;;;;;6214909;23;20013;-75
2023/12/20 05:40:46;;;;;;;28.35;3.75;;;7.40;99.90;;;;;;6214784;23;20088;-75
2023/12/20 05:43:11;;;;;;;24.20;4.45;;;7.50;99.90;;;;;;6216675;23;20043;-76
2023/12/20 05:45:37;;;;;;;28.02;5.28;;;7.50;99.90;;;;;;6215178;23;20013;-76
2023/12/20 05:48:09;;;;;;;25.63;4.07;;;7.50;99.90;;;;;;6214746;23;20024;-76
2023/12/20 05:50:35;;;;;;;23.10;5.50;;;7.50;99.90;;;;;;6214460;23;20091;-75
2023/12/20 05:53:00;;;;;;;30.38;3.63;;;7.50;99.90;;;;;;6214722;23;20044;-75
2023/12/20 05:55:26;;;;;;;26.40;4.60;;;7.50;99.90;;;;;;6214680;23;20016;-76
2023/12/20 05:57:52;;;;;;;23.23;4.72;;;7.50;99.90;;;;;;6214692;23;20013;-75
2023/12/20 06:00:18;;;;;;;32.40;5.93;;;7.50;99.90;;;;;;6214500;23;20017;-75
2023/12/20 06:02:43;;;;;;;22.80;4.95;;;7.50;99.90;;;;;;6214513;23;20016;-75
2023/12/20 06:05:16;;;;;;;31.15;6.88;;;7.60;99.90;;;;;;6214380;23;20013;-75
2023/12/20 06:07:41;;;;;;;24.20;4.40;;;7.60;99.90;;;;;;6212406;23;20021;-76
2023/12/20 06:10:07;;;;;;;29.25;5.22;;;7.60;99.90;;;;;;6214582;23;20448;-75
2023/12/20 06:12:35;;;;;;;34.17;6.00;;;7.60;99.90;;;;;;6214504;23;20023;-75
2023/12/20 06:15:04;;;;;;;31.42;5.55;;;7.60;99.90;;;;;;6216483;23;20021;-75
2023/12/20 06:17:31;;;;;;;28.10;7.30;;;7.60;99.90;;;;;;6214505;23;20017;-76
2023/12/20 06:19:56;;;;;;;26.73;6.00;;;7.70;99.90;;;;;;6211807;23;20157;-75
2023/12/20 06:22:24;;;;;;;26.83;5.38;;;7.60;99.90;;;;;;6216167;23;20056;-75
2023/12/20 06:24:50;;;;;;;26.23;5.45;;;7.60;99.90;;;;;;6216318;23;20013;-75
2023/12/20 06:27:18;;;;;;;37.60;6.22;;;7.60;99.90;;;;;;6214359;23;20059;-75
2023/12/20 06:29:44;;;;;;;29.23;4.55;;;7.70;99.90;;;;;;6214496;23;20017;-75
2023/12/20 06:32:10;;;;;;;29.80;6.05;;;7.70;99.90;;;;;;6214517;23;20085;-75
2023/12/20 06:34:36;;;;;;;32.92;6.65;;;7.70;99.90;;;;;;6214779;23;20048;-75
2023/12/20 06:37:01;;;;;;;34.03;5.97;;;7.70;99.90;;;;;;6214266;23;20012;-75
2023/12/20 06:39:27;;;;;;;26.38;5.82;;;7.70;99.90;;;;;;6214277;23;20008;-75
2023/12/20 06:41:53;;;;;;;27.83;4.57;;;7.70;99.90;;;;;;6214265;23;20021;-75
2023/12/20 06:44:19;;;;;;;29.30;6.63;;;7.80;99.90;;;;;;6216229;23;20051;-75
2023/12/20 06:46:44;;;;;;;26.02;5.82;;;7.70;99.90;;;;;;6214224;23;20016;-75
2023/12/20 06:49:10;;;;;;;27.63;4.82;;;7.80;99.90;;;;;;6214329;23;20499;-75
2023/12/20 06:51:44;;;;;;;28.17;4.60;;;7.80;99.90;;;;;;6211474;23;20009;-76
2023/12/20 06:54:12;;;;;;;27.65;6.03;;;7.80;99.90;;;;;;6189139;23;20101;-75
2023/12/20 06:56:38;;;;;;;23.83;4.80;;;7.80;99.90;;;;;;6189206;23;20087;-75
2023/12/20 06:59:04;;;;;;;32.78;5.55;;;7.80;99.90;;;;;;6189926;23;20376;-76
2023/12/20 07:01:29;;;;;;;34.28;6.38;;;7.80;99.90;;;;;;6189005;23;20023;-76
2023/12/20 07:03:55;;;;;;;37.70;5.78;;;7.90;99.90;;;;;;6189342;23;20013;-75
2023/12/20 07:06:20;;;;;;;29.08;5.28;;;7.90;99.90;;;;;;6189289;23;20449;-75
2023/12/20 07:08:46;;;;;;;28.83;7.45;;;7.90;99.90;;;;;;6189192;23;20357;-75
2023/12/20 07:11:15;;;;;;;24.00;4.38;;;7.90;99.90;;;;;;6216021;23;20024;-75
2023/12/20 07:13:40;;;;;;;26.20;5.05;;;7.90;99.90;;;;;;6188441;23;20048;-75
2023/12/20 07:16:09;;;;;;;28.90;5.18;;;7.90;99.90;;;;;;6189072;23;20096;-75
2023/12/20 07:18:37;;;;;;;26.83;5.43;;;7.90;99.90;;;;;;6189252;23;20349;-75
2023/12/20 07:21:03;;;;;;;27.05;5.28;;;8.00;99.90;;;;;;6189149;23;20024;-75
2023/12/20 07:23:29;;;;;;;24.17;5.32;;;8.00;99.90;;;;;;6189109;23;20344;-75
2023/12/20 07:25:55;;;;;;;25.60;4.97;;;8.00;99.90;;;;;;6188890;23;20429;-75
2023/12/20 07:28:20;;;;;;;39.08;6.38;;;8.00;99.90;;;;;;6189242;23;20480;-75
2023/12/20 07:30:46;;;;;;;32.50;4.88;;;8.00;99.90;;;;;;6189230;23;20377;-75
2023/12/20 07:33:12;;;;;;;37.35;6.40;;;7.90;99.90;;;;;;6216338;23;20020;-75
2023/12/20 07:35:38;;;;;;;28.77;6.68;;;7.90;99.90;;;;;;6191015;23;20020;-76
2023/12/20 07:38:03;;;;;;;24.00;4.75;;;7.90;99.90;;;;;;6190940;23;20017;-76
2023/12/20 07:40:29;;;;;;;29.50;4.45;;;8.00;99.90;;;;;;6191626;23;20028;-76
2023/12/20 07:42:55;;;;;;;23.05;4.10;;;8.00;99.90;;;;;;6190939;23;20341;-75
2023/12/20 07:45:20;;;;;;;30.10;5.70;;;7.90;99.90;;;;;;6191212;23;20028;-76
2023/12/20 07:47:46;;;;;;;25.38;5.55;;;7.90;99.90;;;;;;6190381;23;20020;-76
2023/12/20 07:50:12;;;;;;;24.02;5.10;;;7.90;99.90;;;;;;6190723;23;20456;-76
2023/12/20 07:52:39;;;;;;;30.50;4.40;;;7.90;99.90;;;;;;6190643;23;20107;-76
2023/12/20 07:55:05;;;;;;;24.05;4.68;;;7.90;99.90;;;;;;6190497;23;20028;-76
2023/12/20 07:57:31;;;;;;;28.75;4.85;;;8.00;99.90;;;;;;6190722;23;20013;-75
2023/12/20 07:59:57;;;;;;;37.00;5.38;;;8.00;99.90;;;;;;6190640;23;20025;-75
2023/12/20 08:02:22;;;;;;;33.40;6.47;;;8.00;99.90;;;;;;6190634;23;20103;-76
2023/12/20 08:04:51;;;;;;;9.85;3.05;;;8.00;99.90;;;;;;6190554;23;20012;-75
2023/12/20 08:07:16;;;;;;;10.60;1.42;;;8.00;99.90;;;;;;6190410;23;20020;-76
2023/12/20 08:09:43;;;;;;;11.38;2.35;;;7.50;99.90;;;;;;6189778;23;20019;-76
2023/12/20 08:12:09;;;;;;;16.45;2.97;;;7.10;99.90;;;;;;6189894;23;20017;-75
2023/12/20 08:14:35;;;;;;;14.50;1.90;;;6.70;99.90;;;;;;6190125;23;20020;-75
2023/12/20 08:17:00;;;;;;;17.42;2.08;;;6.60;99.90;;;;;;6189456;23;20019;-75
2023/12/20 08:19:26;;;;;;;19.42;2.60;;;6.50;99.90;;;;;;6190179;23;20024;-75
2023/12/20 08:21:51;;;;;;;15.70;3.50;;;6.50;99.90;;;;;;6190042;23;20071;-75
2023/12/20 08:24:17;;;;;;;16.30;2.78;;;6.50;99.90;;;;;;6190209;23;20052;-78
2023/12/20 08:26:43;;;;;;;14.20;1.90;;;6.50;99.90;;;;;;6190021;23;20023;-76
2023/12/20 08:29:08;;;;;;;17.38;1.95;;;6.50;99.90;;;;;;6190144;23;20009;-76
2023/12/20 08:31:34;;;;;;;14.13;2.60;;;6.50;99.90;;;;;;6190031;23;20016;-76
2023/12/20 08:33:59;;;;;;;14.15;1.90;;;6.60;99.90;;;;;;6189502;23;20075;-76
2023/12/20 08:36:25;;;;;;;21.40;3.92;;;6.50;99.90;;;;;;6189967;23;20048;-76
2023/12/20 08:38:51;;;;;;;26.27;4.40;;;6.60;99.90;;;;;;6190051;23;20017;-76
2023/12/20 08:41:17;;;;;;;13.15;1.88;;;6.60;99.90;;;;;;6189907;23;20032;-76
2023/12/20 08:43:43;;;;;;;21.10;3.63;;;6.60;99.90;;;;;;6189807;23;20044;-76
2023/12/20 08:46:12;;;;;;;21.05;4.20;;;6.60;99.90;;;;;;6189808;23;20021;-76
2023/12/20 08:48:40;;;;;;;17.95;2.45;;;6.60;99.90;;;;;;6189634;23;20318;-76
2023/12/20 08:51:08;;;;;;;16.85;2.40;;;6.60;99.90;;;;;;6189915;23;20475;-76
2023/12/20 08:53:35;;;;;;;11.25;2.13;;;6.60;99.90;;;;;;6189678;23;20020;-76
2023/12/20 08:56:01;;;;;;;13.32;1.50;;;6.70;99.90;;;;;;6189696;23;20021;-76
2023/12/20 08:58:31;;;;;;;13.20;2.05;;;6.60;99.90;;;;;;6190039;23;20016;-76
2023/12/20 09:00:57;;;;;;;11.20;1.48;;;6.60;99.90;;;;;;6216549;23;20016;-79
2023/12/20 09:03:23;;;;;;;15.35;2.10;;;6.60;99.90;;;;;;6189554;23;20092;-76
2023/12/20 09:05:48;;;;;;;8.65;1.65;;;6.60;99.90;;;;;;6189799;23;20044;-76
2023/12/20 09:08:23;;;;;;;9.15;2.65;;;6.60;99.90;;;;;;6189687;23;20024;-76
2023/12/20 09:10:49;;;;;;;15.48;1.95;;;6.60;99.90;;;;;;6189693;23;20062;-77
2023/12/20 09:13:14;;;;;;;10.15;1.60;;;6.60;99.90;;;;;;6189624;23;20024;-76
2023/12/20 09:15:40;;;;;;;9.70;2.00;;;6.60;99.90;;;;;;6189683;23;20063;-76
2023/12/20 09:18:06;;;;;;;13.13;1.83;;;6.60;99.90;;;;;;6215924;23;20466;-76
2023/12/20 09:20:31;;;;;;;20.05;2.85;;;6.70;99.90;;;;;;6216544;23;20338;-76
2023/12/20 09:22:57;;;;;;;15.10;1.95;;;6.70;99.90;;;;;;6189642;23;20444;-76
2023/12/20 09:25:23;;;;;;;22.55;2.58;;;6.80;99.90;;;;;;6189572;23;20074;-79
2023/12/20 09:27:48;;;;;;;22.13;2.75;;;6.80;99.90;;;;;;6189915;23;20028;-78
2023/12/20 09:30:14;;;;;;;20.48;2.20;;;6.90;99.90;;;;;;6189643;23;20099;-78
2023/12/20 09:32:40;;;;;;;22.60;2.42;;;6.90;99.90;;;;;;6215968;23;20317;-78
2023/12/20 09:35:06;;;;;;;18.33;2.45;;;7.00;99.90;;;;;;6216380;23;20024;-76
2023/12/20 09:37:32;;;;;;;16.48;2.70;;;7.00;99.90;;;;;;6216090;23;20437;-76
2023/12/20 09:39:58;;;;;;;22.42;2.97;;;7.10;99.90;;;;;;6215982;23;20479;-76
2023/12/20 09:42:47;;;;;;;20.08;2.53;;;7.10;99.90;;;;;;6216236;23;20012;-76
2023/12/20 09:45:14;;;;;;;15.45;2.75;;;7.20;99.90;;;;;;6189384;23;20020;-76
2023/12/20 09:47:40;;;;;;;15.65;2.53;;;7.30;99.90;;;;;;6189410;23;20024;-76
2023/12/20 09:50:07;;;;;;;15.52;2.33;;;7.30;99.90;;;;;;6189705;23;20071;-76
2023/12/20 09:52:37;;;;;;;11.45;1.58;;;7.40;99.90;;;;;;6189131;23;20013;-76
2023/12/20 09:55:05;;;;;;;17.30;2.17;;;7.40;99.90;;;;;;6189132;23;20055;-76
2023/12/20 09:57:32;;;;;;;13.05;1.88;;;7.50;99.90;;;;;;6215716;23;20013;-75
2023/12/20 09:59:57;;;;;;;23.70;2.65;;;7.50;99.90;;;;;;6189027;23;20020;-76
2023/12/20 10:02:27;;;;;;;8.25;1.98;;;7.60;99.90;;;;;;6189650;23;20460;-76
2023/12/20 10:04:54;;;;;;;12.35;2.28;;;7.60;99.90;;;;;;6189154;23;20016;-76
2023/12/20 10:07:20;;;;;;;16.80;2.10;;;7.60;99.90;;;;;;6216125;23;20044;-76
2023/12/20 10:09:47;;;;;;;12.23;2.28;;;7.60;99.90;;;;;;6216068;23;20012;-76
2023/12/20 10:12:13;;;;;;;12.20;1.70;;;7.60;99.90;;;;;;6189206;23;20088;-76
2023/12/20 10:14:39;;;;;;;11.98;2.80;;;7.60;99.90;;;;;;6215946;23;20052;-76
2023/12/20 10:17:08;;;;;;;15.38;3.00;;;7.60;99.90;;;;;;6189123;23;20398;-76
2023/12/20 10:19:34;;;;;;;16.13;2.25;;;7.60;99.90;;;;;;6188988;23;20052;-77
2023/12/20 10:22:00;;;;;;;18.50;2.75;;;7.70;99.90;;;;;;6188980;23;20040;-76
2023/12/20 10:24:28;;;;;;;21.95;2.30;;;7.70;99.90;;;;;;6189218;23;20044;-76
2023/12/20 10:27:04;;;;;;;23.50;4.43;;;7.60;99.90;;;;;;6188892;23;20021;-77
2023/12/20 10:29:36;;;;;;;17.00;3.05;;;7.60;99.90;;;;;;6216083;23;20013;-77
2023/12/20 10:32:35;;;;;;;22.38;2.97;;;7.70;99.90;;;;;;6188970;23;20017;-77
2023/12/20 10:35:00;;;;;;;14.63;2.83;;;7.70;99.90;;;;;;6124770;23;20020;-77
2023/12/20 10:37:26;;;;;;;18.92;3.55;;;7.80;99.90;;;;;;6188909;23;20055;-76
2023/12/20 10:39:56;;;;;;;18.45;3.95;;;7.70;99.90;;;;;;6189023;23;20128;-76
2023/12/20 10:42:29;;;;;;;23.35;2.92;;;7.80;99.90;;;;;;6188952;23;20099;-76
2023/12/20 10:44:55;;;;;;;22.05;3.20;;;7.80;99.90;;;;;;6215966;23;20012;-76
2023/12/20 10:47:21;;;;;;;23.45;4.10;;;7.80;99.90;;;;;;6188917;23;20048;-76
2023/12/20 10:49:49;;;;;;;17.13;2.95;;;7.80;99.90;;;;;;6188895;23;20413;-75
2023/12/20 10:52:16;;;;;;;20.65;3.45;;;7.80;99.90;;;;;;6188770;23;20017;-77
2023/12/20 10:54:46;;;;;;;21.25;5.53;;;7.80;99.90;;;;;;6188806;23;20036;-77
2023/12/20 10:57:12;;;;;;;25.95;4.35;;;7.80;99.90;;;;;;6188724;23;20451;-77
2023/12/20 10:59:38;;;;;;;16.35;3.40;;;7.90;99.90;;;;;;6188925;23;20020;-77
2023/12/20 11:02:07;;;;;;;32.42;4.18;;;7.90;99.90;;;;;;6215324;23;20028;-77
2023/12/20 11:05:01;;;;;;;35.90;6.53;;;7.90;99.90;;;;;;6188840;23;20063;-77
2023/12/20 11:07:33;;;;;;;;;;;7.90;99.90;;;;;;6190068;23;20395;-77
2023/12/20 11:10:16;;;;;;;18.10;3.78;;;8.00;99.90;;;;;;6190795;23;19916;-77
2023/12/20 11:12:51;;;;;;;25.95;3.25;;;8.10;99.90;;;;;;6190723;23;20021;-76
2023/12/20 11:15:18;;;;;;;12.82;2.78;;;8.10;99.90;;;;;;6190911;23;20044;-77
2023/12/20 11:17:55;;;;;;;27.83;3.22;;;8.10;99.90;;;;;;6217607;23;20016;-77
2023/12/20 11:20:23;;;;;;;22.10;3.60;;;8.10;99.90;;;;;;6189655;23;20051;-77
2023/12/20 11:22:54;;;;;;;28.45;4.15;;;7.90;99.90;;;;;;6245796;23;20021;-76
2023/12/20 11:25:24;;;;;;;20.42;4.93;;;7.90;99.90;;;;;;6245807;23;20091;-76
2023/12/20 11:28:24;;;;;;;22.92;3.17;;;7.90;99.90;;;;;;6247396;22;20315;-77
2023/12/20 11:30:55;;;;;;;20.05;3.08;;;8.00;99.90;;;;;;6166049;23;20024;-77
2023/12/20 11:33:29;;;;;;;26.00;3.67;;;7.90;99.90;;;;;;6246381;23;20012;-76
2023/12/20 11:35:56;;;;;;;17.60;3.55;;;8.00;99.90;;;;;;6246209;23;20074;-77
2023/12/20 11:38:22;;;;;;;21.50;4.07;;;8.00;99.90;;;;;;6245603;23;20023;-77
2023/12/20 11:40:49;;;;;;;19.10;3.15;;;7.90;99.90;;;;;;6247408;23;20016;-76
2023/12/20 11:43:32;;;;;;;21.85;3.28;;;7.90;99.90;;;;;;6245804;23;20020;-76
2023/12/20 11:46:06;;;;;;;21.80;3.45;;;7.90;99.90;;;;;;6247422;22;20744;-75
2023/12/20 11:48:34;;;;;;;15.60;2.38;;;7.90;99.90;;;;;;6245907;23;20066;-75
2023/12/20 11:51:00;;;;;;;12.93;1.90;;;8.00;99.90;;;;;;6245942;23;20024;-75
2023/12/20 11:53:25;;;;;;;19.48;2.67;;;8.00;99.90;;;;;;6245897;23;20016;-76
2023/12/20 11:55:53;;;;;;;15.75;2.95;;;8.00;99.90;;;;;;6236478;23;20021;-76
2023/12/20 11:58:20;;;;;;;13.25;2.28;;;8.10;99.90;;;;;;6215785;23;20025;-75
2023/12/20 12:00:45;;;;;;;15.65;2.05;;;8.10;99.90;;;;;;6215287;23;20043;-76
2023/12/20 12:03:15;;;;;;;12.20;2.10;;;8.00;99.90;;;;;;6215339;23;20357;-75
2023/12/20 12:05:41;;;;;;;16.60;2.63;;;8.10;99.90;;;;;;6215425;23;20045;-75
2023/12/20 12:08:07;;;;;;;25.23;5.38;;;8.10;99.90;;;;;;6215481;23;20020;-75
2023/12/20 12:10:36;;;;;;;16.60;2.72;;;8.10;99.90;;;;;;6215378;23;20017;-75
2023/12/20 12:13:04;;;;;;;16.33;2.45;;;8.00;99.90;;;;;;6217254;23;20389;-76
2023/12/20 12:15:30;;;;;;;12.43;2.88;;;8.00;99.90;;;;;;6215312;23;20445;-76
2023/12/20 12:17:57;;;;;;;14.93;2.60;;;8.00;99.90;;;;;;6217290;23;20086;-76
2023/12/20 12:20:23;;;;;;;16.15;2.22;;;7.90;99.90;;;;;;6214775;23;20093;-76
2023/12/20 12:23:03;;;;;;;16.85;2.75;;;8.00;99.90;;;;;;6215325;23;20017;-76
2023/12/20 12:25:30;;;;;;;18.10;2.22;;;8.00;99.90;;;;;;6215156;23;20020;-76
2023/12/20 12:27:57;;;;;;;15.55;2.92;;;7.90;99.90;;;;;;6214684;23;20024;-76
2023/12/20 12:30:23;;;;;;;15.05;3.67;;;7.90;99.90;;;;;;6214805;23;20017;-76
2023/12/20 12:32:48;;;;;;;18.05;2.65;;;7.80;99.90;;;;;;6214797;23;20032;-76
2023/12/20 12:35:14;;;;;;;22.52;2.97;;;7.80;99.90;;;;;;6214802;23;20016;-76
2023/12/20 12:37:41;;;;;;;16.55;2.35;;;7.90;99.90;;;;;;6214954;23;20017;-76
2023/12/20 12:40:16;;;;;;;21.25;2.88;;;7.90;99.90;;;;;;6216200;23;20099;-76
2023/12/20 12:42:43;;;;;;;23.70;4.15;;;8.00;99.90;;;;;;6214999;23;20016;-76
2023/12/20 12:45:11;;;;;;;24.27;3.33;;;8.00;99.90;;;;;;6214741;23;20095;-76
2023/12/20 12:47:37;;;;;;;13.68;2.85;;;8.00;99.90;;;;;;6215086;23;20091;-76